createdAt,value
2016-11-04T00:00:34.142Z,0
2016-11-04T00:01:34.074Z,0
2016-11-04T00:02:34.166Z,0
2016-11-04T00:03:34.190Z,0
2016-11-04T00:04:34.216Z,0
2016-11-04T00:05:34.259Z,0
2016-11-04T00:06:34.348Z,0
2016-11-04T00:07:34.425Z,0
2016-11-04T00:08:34.455Z,0
2016-11-04T00:09:34.520Z,0
2016-11-04T00:10:34.558Z,0
2016-11-04T00:11:34.649Z,0
2016-11-04T00:12:34.683Z,0
2016-11-04T00:13:34.763Z,0
2016-11-04T00:14:34.833Z,0
2016-11-04T00:15:34.867Z,0
2016-11-04T00:16:34.904Z,0
2016-11-04T00:17:34.973Z,0
2016-11-04T00:18:35.070Z,0
2016-11-04T00:19:35.108Z,0
2016-11-04T00:20:35.143Z,0
2016-11-04T00:21:35.200Z,0
2016-11-04T00:22:35.280Z,0
2016-11-04T00:23:35.348Z,0
2016-11-04T00:24:35.415Z,0
2016-11-04T00:25:35.497Z,0
2016-11-04T00:26:35.506Z,0
2016-11-04T00:27:35.577Z,0
2016-11-04T00:28:35.576Z,0
2016-11-04T00:29:35.641Z,0
2016-11-04T00:30:35.725Z,0
2016-11-04T00:31:35.823Z,0
2016-11-04T00:32:35.865Z,0
2016-11-04T00:33:35.887Z,0
2016-11-04T00:34:35.953Z,0
2016-11-04T00:35:36.001Z,0
2016-11-04T00:36:36.137Z,0
2016-11-04T00:37:36.157Z,0
2016-11-04T00:38:36.171Z,0
2016-11-04T00:39:36.251Z,0
2016-11-04T00:40:36.317Z,0
2016-11-04T00:41:36.469Z,0
2016-11-04T00:42:36.379Z,0
2016-11-04T00:43:36.531Z,0
2016-11-04T00:44:36.533Z,0
2016-11-04T00:45:36.575Z,0
2016-11-04T00:46:36.641Z,0
2016-11-04T00:47:36.740Z,0
2016-11-04T00:48:36.792Z,0
2016-11-04T00:49:36.804Z,0
2016-11-04T00:50:36.875Z,0
2016-11-04T00:51:36.942Z,0
2016-11-04T00:52:36.988Z,0
2016-11-04T00:53:37.062Z,0
2016-11-04T00:54:37.084Z,0
2016-11-04T00:55:37.172Z,0
2016-11-04T00:56:37.223Z,0
2016-11-04T00:57:37.272Z,0
2016-11-04T00:58:37.348Z,0
2016-11-04T00:59:37.394Z,0
2016-11-04T01:00:37.475Z,0
2016-11-04T01:01:37.510Z,0
2016-11-04T01:02:37.575Z,0
2016-11-04T01:03:37.635Z,0
2016-11-04T01:04:37.676Z,0
2016-11-04T01:05:37.735Z,0
2016-11-04T01:06:37.774Z,0
2016-11-04T01:07:37.857Z,0
2016-11-04T01:08:37.897Z,0
2016-11-04T01:09:37.993Z,0
2016-11-04T01:10:38.004Z,0
2016-11-04T01:11:38.100Z,0
2016-11-04T01:12:38.114Z,0
2016-11-04T01:13:38.195Z,0
2016-11-04T01:14:38.264Z,0
2016-11-04T01:15:38.292Z,0
2016-11-04T01:16:38.357Z,0
2016-11-04T01:17:38.392Z,0
2016-11-04T01:18:38.551Z,0
2016-11-04T01:19:38.567Z,0
2016-11-04T01:20:38.570Z,0
2016-11-04T01:21:38.634Z,0
2016-11-04T01:22:38.708Z,0
2016-11-04T01:23:38.734Z,0
2016-11-04T01:24:38.801Z,0
2016-11-04T01:25:38.917Z,0
2016-11-04T01:26:38.928Z,0
2016-11-04T01:27:38.952Z,0
2016-11-04T01:28:39.037Z,0
2016-11-04T01:29:39.104Z,0
2016-11-04T01:30:39.209Z,0
2016-11-04T01:31:39.188Z,0
2016-11-04T01:32:39.254Z,0
2016-11-04T01:33:39.323Z,0
2016-11-04T01:34:39.370Z,0
2016-11-04T01:35:39.497Z,0
2016-11-04T01:36:39.481Z,0
2016-11-04T01:37:39.540Z,0
2016-11-04T01:38:39.593Z,0
2016-11-04T01:39:39.666Z,0
2016-11-04T01:40:39.699Z,0
2016-11-04T01:41:39.810Z,0
2016-11-04T01:42:39.862Z,0
2016-11-04T01:43:39.907Z,0
2016-11-04T01:44:39.973Z,0
2016-11-04T01:45:40.029Z,0
2016-11-04T01:46:40.088Z,0
2016-11-04T01:47:40.126Z,0
2016-11-04T01:48:40.204Z,0
2016-11-04T01:49:40.224Z,0
2016-11-04T01:50:40.280Z,0
2016-11-04T01:51:40.328Z,0
2016-11-04T01:52:40.416Z,0
2016-11-04T01:53:40.487Z,0
2016-11-04T01:54:40.543Z,0
2016-11-04T01:55:40.607Z,0
2016-11-04T01:56:40.602Z,0
2016-11-04T01:57:40.762Z,0
2016-11-04T01:58:40.716Z,0
2016-11-04T01:59:40.927Z,0
2016-11-04T02:00:40.882Z,0
2016-11-04T02:01:40.918Z,0
2016-11-04T02:02:40.979Z,0
2016-11-04T02:03:41.044Z,0
2016-11-04T02:04:41.139Z,0
2016-11-04T02:05:41.139Z,0
2016-11-04T02:06:41.565Z,0
2016-11-04T02:07:41.281Z,0
2016-11-04T02:08:41.386Z,0
2016-11-04T02:09:41.400Z,0
2016-11-04T02:10:41.420Z,0
2016-11-04T02:11:41.532Z,0
2016-11-04T02:12:41.570Z,0
2016-11-04T02:13:41.634Z,0
2016-11-04T02:14:41.685Z,0
2016-11-04T02:15:41.726Z,0
2016-11-04T02:16:41.781Z,0
2016-11-04T02:17:41.830Z,0
2016-11-04T02:18:41.916Z,0
2016-11-04T02:19:41.969Z,0
2016-11-04T02:20:41.970Z,0
2016-11-04T02:21:42.079Z,0
2016-11-04T02:22:42.086Z,0
2016-11-04T02:23:42.162Z,0
2016-11-04T02:24:42.229Z,0
2016-11-04T02:25:42.290Z,0
2016-11-04T02:26:42.375Z,0
2016-11-04T02:27:42.400Z,0
2016-11-04T02:28:42.465Z,0
2016-11-04T02:29:42.505Z,0
2016-11-04T02:30:42.584Z,0
2016-11-04T02:31:42.941Z,0
2016-11-04T02:32:42.736Z,0
2016-11-04T02:33:42.784Z,0
2016-11-04T02:34:42.794Z,0
2016-11-04T02:35:42.967Z,0
2016-11-04T02:36:42.901Z,0
2016-11-04T02:37:42.971Z,0
2016-11-04T02:38:43.036Z,0
2016-11-04T02:39:43.103Z,0
2016-11-04T02:40:43.167Z,0
2016-11-04T02:41:43.225Z,0
2016-11-04T02:42:43.265Z,0
2016-11-04T02:43:43.353Z,0
2016-11-04T02:44:43.368Z,0
2016-11-04T02:45:43.788Z,0
2016-11-04T02:46:43.472Z,0
2016-11-04T02:47:43.553Z,0
2016-11-04T02:48:43.620Z,0
2016-11-04T02:49:43.644Z,0
2016-11-04T02:50:43.756Z,0
2016-11-04T02:51:43.807Z,0
2016-11-04T02:52:43.819Z,0
2016-11-04T02:53:43.892Z,0
2016-11-04T02:54:43.941Z,0
2016-11-04T02:55:44.005Z,0
2016-11-04T02:56:44.241Z,0
2016-11-04T02:57:44.100Z,0
2016-11-04T02:58:44.181Z,0
2016-11-04T02:59:44.211Z,0
2016-11-04T03:00:44.300Z,0
2016-11-04T03:01:44.347Z,0
2016-11-04T03:02:44.399Z,0
2016-11-04T03:03:44.443Z,0
2016-11-04T03:04:44.477Z,0
2016-11-04T03:05:44.544Z,0
2016-11-04T03:06:44.637Z,0
2016-11-04T03:07:44.679Z,0
2016-11-04T03:08:44.732Z,0
2016-11-04T03:09:44.819Z,0
2016-11-04T03:10:44.832Z,0
2016-11-04T03:11:44.926Z,0
2016-11-04T03:12:44.992Z,0
2016-11-04T03:13:44.989Z,0
2016-11-04T03:14:45.101Z,0
2016-11-04T03:15:45.175Z,0
2016-11-04T03:16:45.170Z,0
2016-11-04T03:17:45.239Z,0
2016-11-04T03:18:45.350Z,0
2016-11-04T03:19:45.679Z,0
2016-11-04T03:20:45.420Z,0
2016-11-04T03:21:45.460Z,0
2016-11-04T03:22:45.857Z,0
2016-11-04T03:23:45.930Z,0
2016-11-04T03:24:45.644Z,0
2016-11-04T03:25:45.738Z,0
2016-11-04T03:26:45.817Z,0
2016-11-04T03:27:45.853Z,0
2016-11-04T03:28:45.898Z,0
2016-11-04T03:29:45.940Z,0
2016-11-04T03:30:45.978Z,0
2016-11-04T03:31:46.013Z,0
2016-11-04T03:32:46.094Z,0
2016-11-04T03:33:46.165Z,0
2016-11-04T03:34:46.250Z,0
2016-11-04T03:35:46.257Z,0
2016-11-04T03:36:46.337Z,0
2016-11-04T03:37:46.413Z,0
2016-11-04T03:38:46.785Z,0
2016-11-04T03:39:46.485Z,0
2016-11-04T03:40:46.577Z,0
2016-11-04T03:41:46.645Z,0
2016-11-04T03:42:46.997Z,0
2016-11-04T03:43:46.762Z,0
2016-11-04T03:44:46.800Z,0
2016-11-04T03:45:46.841Z,0
2016-11-04T03:46:46.919Z,0
2016-11-04T03:47:46.959Z,0
2016-11-04T03:48:47.462Z,0
2016-11-04T03:49:47.088Z,0
2016-11-04T03:50:47.405Z,0
2016-11-04T03:51:47.241Z,0
2016-11-04T03:52:47.242Z,0
2016-11-04T03:53:47.329Z,0
2016-11-04T03:54:47.694Z,0
2016-11-04T03:55:47.394Z,0
2016-11-04T03:56:47.456Z,0
2016-11-04T03:57:47.572Z,0
2016-11-04T03:58:47.563Z,0
2016-11-04T03:59:47.640Z,0
2016-11-04T04:00:47.697Z,0
2016-11-04T04:01:47.742Z,0
2016-11-04T04:02:47.796Z,0
2016-11-04T04:03:47.878Z,0
2016-11-04T04:04:47.909Z,0
2016-11-04T04:05:48.004Z,0
2016-11-04T04:06:48.047Z,0
2016-11-04T04:07:48.104Z,0
2016-11-04T04:09:20.204Z,0
2016-11-04T04:09:48.161Z,0
2016-11-04T04:10:48.226Z,0
2016-11-04T04:11:48.275Z,0
2016-11-04T04:12:48.332Z,0
2016-11-04T04:13:48.406Z,0
2016-11-04T04:14:48.565Z,0
2016-11-04T04:15:48.533Z,0
2016-11-04T04:16:48.561Z,0
2016-11-04T04:17:48.630Z,0
2016-11-04T04:18:48.705Z,0
2016-11-04T04:19:48.769Z,0
2016-11-04T04:20:48.818Z,0
2016-11-04T04:21:48.880Z,0
2016-11-04T04:22:48.945Z,0
2016-11-04T04:23:48.976Z,0
2016-11-04T04:24:49.041Z,0
2016-11-04T04:25:49.083Z,0
2016-11-04T04:26:49.147Z,0
2016-11-04T04:27:49.195Z,0
2016-11-04T04:28:49.284Z,0
2016-11-04T04:29:49.333Z,0
2016-11-04T04:30:49.400Z,0
2016-11-04T04:31:49.441Z,0
2016-11-04T04:32:49.494Z,0
2016-11-04T04:33:49.543Z,0
2016-11-04T04:34:49.612Z,0
2016-11-04T04:35:49.664Z,0
2016-11-04T04:36:49.717Z,0
2016-11-04T04:37:49.779Z,0
2016-11-04T04:38:49.831Z,0
2016-11-04T04:39:49.899Z,0
2016-11-04T04:40:49.943Z,0
2016-11-04T04:41:50.066Z,0
2016-11-04T04:42:50.052Z,0
2016-11-04T04:43:50.103Z,0
2016-11-04T04:44:50.168Z,0
2016-11-04T04:45:50.251Z,0
2016-11-04T04:46:50.283Z,0
2016-11-04T04:47:50.327Z,0
2016-11-04T04:48:50.371Z,0
2016-11-04T04:49:50.483Z,0
2016-11-04T04:50:50.501Z,0
2016-11-04T04:51:50.584Z,0
2016-11-04T04:52:50.618Z,0
2016-11-04T04:53:50.661Z,0
2016-11-04T04:54:50.738Z,0
2016-11-04T04:55:50.797Z,0
2016-11-04T04:56:50.828Z,0
2016-11-04T04:57:50.910Z,0
2016-11-04T04:58:50.970Z,0
2016-11-04T04:59:51.003Z,0
2016-11-04T05:00:51.079Z,0
2016-11-04T05:01:51.144Z,0
2016-11-04T05:02:51.200Z,0
2016-11-04T05:03:51.239Z,0
2016-11-04T05:04:51.299Z,0
2016-11-04T05:05:51.394Z,0
2016-11-04T05:06:51.401Z,0
2016-11-04T05:07:51.460Z,0
2016-11-04T05:08:51.511Z,0
2016-11-04T05:09:51.599Z,0
2016-11-04T05:10:51.652Z,0
2016-11-04T05:11:51.691Z,0
2016-11-04T05:12:51.731Z,0
2016-11-04T05:13:51.824Z,0
2016-11-04T05:14:51.869Z,0
2016-11-04T05:15:51.920Z,0
2016-11-04T05:16:52.332Z,0
2016-11-04T05:17:52.033Z,0
2016-11-04T05:18:52.085Z,0
2016-11-04T05:19:52.164Z,0
2016-11-04T05:20:52.203Z,0
2016-11-04T05:21:52.275Z,0
2016-11-04T05:22:52.300Z,0
2016-11-04T05:23:52.410Z,0
2016-11-04T05:24:52.454Z,0
2016-11-04T05:25:52.509Z,0
2016-11-04T05:26:52.555Z,0
2016-11-04T05:27:52.600Z,0
2016-11-04T05:28:52.664Z,0
2016-11-04T05:29:52.742Z,0
2016-11-04T05:30:52.786Z,0
2016-11-04T05:31:53.128Z,0
2016-11-04T05:32:52.906Z,0
2016-11-04T05:33:52.958Z,0
2016-11-04T05:34:53.003Z,0
2016-11-04T05:35:53.101Z,0
2016-11-04T05:36:53.113Z,0
2016-11-04T05:37:53.292Z,0
2016-11-04T05:38:53.220Z,0
2016-11-04T05:39:53.274Z,0
2016-11-04T05:40:53.336Z,0
2016-11-04T05:41:53.395Z,0
2016-11-04T05:42:53.470Z,0
2016-11-04T05:43:53.568Z,0
2016-11-04T05:44:53.578Z,0
2016-11-04T05:45:53.615Z,0
2016-11-04T05:46:53.731Z,0
2016-11-04T05:47:53.751Z,0
2016-11-04T05:48:53.780Z,0
2016-11-04T05:49:53.877Z,0
2016-11-04T05:50:53.949Z,0
2016-11-04T05:51:53.981Z,0
2016-11-04T05:52:54.033Z,0
2016-11-04T05:53:54.087Z,0
2016-11-04T05:54:54.136Z,0
2016-11-04T05:55:54.186Z,0
2016-11-04T05:56:54.252Z,0
2016-11-04T05:57:54.331Z,0
2016-11-04T05:58:54.367Z,0
2016-11-04T05:59:54.421Z,0
2016-11-04T06:00:54.481Z,0
2016-11-04T06:01:54.525Z,0
2016-11-04T06:02:54.604Z,0
2016-11-04T06:03:54.641Z,0
2016-11-04T06:04:54.708Z,0
2016-11-04T06:05:54.747Z,0
2016-11-04T06:06:54.828Z,0
2016-11-04T06:07:54.869Z,0
2016-11-04T06:08:54.916Z,0
2016-11-04T06:09:55.001Z,0
2016-11-04T06:10:55.044Z,0
2016-11-04T06:11:55.089Z,0
2016-11-04T06:12:55.158Z,0
2016-11-04T06:13:55.202Z,0
2016-11-04T06:14:55.264Z,0
2016-11-04T06:15:55.325Z,0
2016-11-04T06:16:55.405Z,0
2016-11-04T06:17:55.425Z,0
2016-11-04T06:18:55.494Z,0
2016-11-04T06:19:55.562Z,0
2016-11-04T06:20:55.619Z,0
2016-11-04T06:21:55.681Z,0
2016-11-04T06:22:55.718Z,0
2016-11-04T06:23:55.780Z,0
2016-11-04T06:24:55.946Z,0
2016-11-04T06:25:55.885Z,0
2016-11-04T06:26:55.984Z,0
2016-11-04T06:27:56.004Z,0
2016-11-04T06:28:56.071Z,0
2016-11-04T06:29:56.126Z,0
2016-11-04T06:30:56.186Z,0
2016-11-04T06:31:56.252Z,0
2016-11-04T06:32:56.296Z,0
2016-11-04T06:33:56.353Z,0
2016-11-04T06:34:56.600Z,0
2016-11-04T06:35:56.464Z,0
2016-11-04T06:36:56.823Z,0
2016-11-04T06:37:56.596Z,0
2016-11-04T06:38:56.636Z,0
2016-11-04T06:39:56.701Z,0
2016-11-04T06:40:56.734Z,0
2016-11-04T06:41:57.108Z,0
2016-11-04T06:42:56.850Z,0
2016-11-04T06:43:56.895Z,0
2016-11-04T06:44:56.968Z,0
2016-11-04T06:45:57.124Z,0
2016-11-04T06:46:57.093Z,0
2016-11-04T06:47:57.122Z,0
2016-11-04T06:48:57.188Z,5
2016-11-04T06:49:57.258Z,5
2016-11-04T06:50:57.311Z,5
2016-11-04T06:51:57.371Z,5
2016-11-04T06:52:57.419Z,5
2016-11-04T06:53:57.474Z,5
2016-11-04T06:54:57.546Z,5
2016-11-04T06:55:57.572Z,5
2016-11-04T06:56:57.648Z,5
2016-11-04T06:57:57.730Z,5
2016-11-04T06:58:57.772Z,5
2016-11-04T06:59:57.829Z,5
2016-11-04T07:00:58.032Z,5
2016-11-04T07:01:57.945Z,5
2016-11-04T07:02:57.995Z,5
2016-11-04T07:03:58.044Z,5
2016-11-04T07:04:58.078Z,5
2016-11-04T07:05:58.150Z,5
2016-11-04T07:06:58.225Z,5
2016-11-04T07:07:58.281Z,5
2016-11-04T07:08:58.304Z,5
2016-11-04T07:09:58.408Z,5
2016-11-04T07:10:58.446Z,5
2016-11-04T07:11:58.701Z,5
2016-11-04T07:12:58.552Z,5
2016-11-04T07:13:58.595Z,5
2016-11-04T07:14:58.690Z,5
2016-11-04T07:15:58.722Z,5
2016-11-04T07:16:58.754Z,5
2016-11-04T07:17:58.843Z,5
2016-11-04T07:18:58.898Z,5
2016-11-04T07:19:58.967Z,5
2016-11-04T07:20:59.003Z,5
2016-11-04T07:21:59.097Z,5
2016-11-04T07:22:59.130Z,5
2016-11-04T07:23:59.152Z,10
2016-11-04T07:24:59.215Z,10
2016-11-04T07:25:59.282Z,10
2016-11-04T07:26:59.347Z,10
2016-11-04T07:27:59.417Z,10
2016-11-04T07:28:59.470Z,10
2016-11-04T07:29:59.529Z,10
2016-11-04T07:30:59.578Z,10
2016-11-04T07:31:59.676Z,10
2016-11-04T07:32:59.677Z,15
2016-11-04T07:33:59.769Z,15
2016-11-04T07:34:59.799Z,15
2016-11-04T07:35:59.877Z,10
2016-11-04T07:36:59.919Z,10
2016-11-04T07:37:59.979Z,10
2016-11-04T07:39:00.006Z,10
2016-11-04T07:40:00.065Z,10
2016-11-04T07:41:00.151Z,10
2016-11-04T07:42:00.217Z,10
2016-11-04T07:43:00.252Z,10
2016-11-04T07:44:00.304Z,15
2016-11-04T07:45:00.366Z,15
2016-11-04T07:46:00.404Z,15
2016-11-04T07:47:00.470Z,15
2016-11-04T07:48:00.549Z,15
2016-11-04T07:49:00.605Z,15
2016-11-04T07:50:00.672Z,15
2016-11-04T07:51:00.707Z,15
2016-11-04T07:52:00.782Z,15
2016-11-04T07:53:00.819Z,15
2016-11-04T07:54:00.858Z,15
2016-11-04T07:55:00.937Z,15
2016-11-04T07:56:00.984Z,15
2016-11-04T07:57:01.057Z,15
2016-11-04T07:58:01.198Z,15
2016-11-04T07:59:01.162Z,15
2016-11-04T08:00:01.239Z,15
2016-11-04T08:01:01.274Z,15
2016-11-04T08:02:01.321Z,15
2016-11-04T08:03:01.399Z,15
2016-11-04T08:04:01.488Z,15
2016-11-04T08:05:01.518Z,15
2016-11-04T08:06:01.574Z,15
2016-11-04T08:07:01.613Z,20
2016-11-04T08:08:01.660Z,20
2016-11-04T08:09:01.752Z,20
2016-11-04T08:10:01.787Z,20
2016-11-04T08:11:01.834Z,20
2016-11-04T08:12:01.884Z,15
2016-11-04T08:13:01.969Z,20
2016-11-04T08:14:02.099Z,20
2016-11-04T08:15:02.087Z,20
2016-11-04T08:16:02.129Z,20
2016-11-04T08:17:02.157Z,20
2016-11-04T08:18:02.257Z,20
2016-11-04T08:19:02.321Z,20
2016-11-04T08:20:02.360Z,15
2016-11-04T08:21:02.421Z,15
2016-11-04T08:22:02.787Z,15
2016-11-04T08:23:02.542Z,15
2016-11-04T08:24:03.183Z,15
2016-11-04T08:25:02.646Z,15
2016-11-04T08:26:03.010Z,15
2016-11-04T08:27:02.769Z,20
2016-11-04T08:28:02.811Z,15
2016-11-04T08:29:02.876Z,15
2016-11-04T08:30:02.908Z,15
2016-11-04T08:31:02.999Z,15
2016-11-04T08:32:03.027Z,15
2016-11-04T08:33:03.104Z,15
2016-11-04T08:34:03.126Z,15
2016-11-04T08:35:03.208Z,15
2016-11-04T08:36:03.257Z,15
2016-11-04T08:37:03.307Z,20
2016-11-04T08:38:03.351Z,20
2016-11-04T08:39:03.422Z,15
2016-11-04T08:40:03.499Z,15
2016-11-04T08:41:03.526Z,20
2016-11-04T08:42:03.599Z,20
2016-11-04T08:43:03.672Z,20
2016-11-04T08:44:03.721Z,20
2016-11-04T08:45:03.764Z,20
2016-11-04T08:46:03.837Z,20
2016-11-04T08:47:03.884Z,20
2016-11-04T08:48:03.936Z,25
2016-11-04T08:49:03.991Z,25
2016-11-04T08:50:04.054Z,25
2016-11-04T08:51:04.424Z,30
2016-11-04T08:52:04.186Z,35
2016-11-04T08:53:04.226Z,35
2016-11-04T08:54:04.280Z,30
2016-11-04T08:55:04.555Z,30
2016-11-04T08:56:04.425Z,30
2016-11-04T08:57:04.463Z,35
2016-11-04T08:58:04.503Z,35
2016-11-04T08:59:04.553Z,40
2016-11-04T09:00:04.632Z,35
2016-11-04T09:01:04.688Z,35
2016-11-04T09:02:04.760Z,35
2016-11-04T09:03:04.824Z,35
2016-11-04T09:04:04.858Z,35
2016-11-04T09:05:04.938Z,35
2016-11-04T09:06:04.978Z,40
2016-11-04T09:07:05.015Z,40
2016-11-04T09:08:05.081Z,40
2016-11-04T09:09:05.140Z,35
2016-11-04T09:10:05.207Z,40
2016-11-04T09:11:05.593Z,40
2016-11-04T09:12:05.320Z,40
2016-11-04T09:13:05.390Z,35
2016-11-04T09:14:05.437Z,35
2016-11-04T09:15:05.472Z,35
2016-11-04T09:16:05.519Z,30
2016-11-04T09:17:05.592Z,30
2016-11-04T09:18:05.664Z,30
2016-11-04T09:19:05.703Z,30
2016-11-04T09:20:05.782Z,30
2016-11-04T09:21:05.835Z,30
2016-11-04T09:22:05.893Z,30
2016-11-04T09:23:05.951Z,30
2016-11-04T09:24:06.007Z,30
2016-11-04T09:25:06.036Z,30
2016-11-04T09:26:06.138Z,30
2016-11-04T09:27:06.191Z,30
2016-11-04T09:28:06.203Z,35
2016-11-04T09:29:06.280Z,35
2016-11-04T09:30:06.620Z,35
2016-11-04T09:31:06.398Z,35
2016-11-04T09:32:06.473Z,40
2016-11-04T09:33:06.517Z,40
2016-11-04T09:34:06.632Z,40
2016-11-04T09:35:06.621Z,35
2016-11-04T09:36:06.673Z,35
2016-11-04T09:37:07.021Z,35
2016-11-04T09:38:06.811Z,40
2016-11-04T09:39:06.858Z,40
2016-11-04T09:40:06.923Z,40
2016-11-04T09:41:06.957Z,40
2016-11-04T09:42:07.048Z,45
2016-11-04T09:43:07.109Z,45
2016-11-04T09:44:07.161Z,45
2016-11-04T09:45:07.193Z,45
2016-11-04T09:46:07.261Z,50
2016-11-04T09:47:07.334Z,50
2016-11-04T09:48:07.360Z,55
2016-11-04T09:49:07.450Z,55
2016-11-04T09:50:07.473Z,50
2016-11-04T09:51:07.515Z,50
2016-11-04T09:52:07.609Z,55
2016-11-04T09:53:07.647Z,50
2016-11-04T09:54:07.720Z,50
2016-11-04T09:55:08.084Z,50
2016-11-04T09:56:07.815Z,55
2016-11-04T09:57:07.898Z,60
2016-11-04T09:58:07.930Z,60
2016-11-04T09:59:07.990Z,55
2016-11-04T10:00:08.061Z,60
2016-11-04T10:01:08.125Z,60
2016-11-04T10:02:08.173Z,60
2016-11-04T10:03:08.261Z,55
2016-11-04T10:04:08.301Z,50
2016-11-04T10:05:08.359Z,45
2016-11-04T10:06:08.410Z,55
2016-11-04T10:07:08.508Z,55
2016-11-04T10:08:08.514Z,60
2016-11-04T10:09:08.609Z,65
2016-11-04T10:10:08.647Z,65
2016-11-04T10:11:08.674Z,60
2016-11-04T10:14:14.585Z,55
2016-11-04T10:15:08.896Z,55
2016-11-04T10:16:08.969Z,55
2016-11-04T10:17:09.013Z,60
2016-11-04T10:18:09.088Z,65
2016-11-04T10:19:09.121Z,65
2016-11-04T10:21:42.156Z,65
2016-11-04T10:22:09.320Z,65
2016-11-04T10:23:09.384Z,65
2016-11-04T10:24:09.637Z,60
2016-11-04T10:25:09.469Z,65
2016-11-04T10:26:09.548Z,65
2016-11-04T10:27:09.598Z,60
2016-11-04T10:28:09.645Z,60
2016-11-04T10:29:09.701Z,60
2016-11-04T10:30:09.788Z,60
2016-11-04T10:31:09.840Z,65
2016-11-04T10:32:09.914Z,75
2016-11-04T10:33:09.954Z,65
2016-11-04T10:34:10.217Z,60
2016-11-04T10:35:10.056Z,60
2016-11-04T10:36:10.129Z,60
2016-11-04T10:37:10.181Z,60
2016-11-04T10:38:10.223Z,60
2016-11-04T10:39:10.704Z,60
2016-11-04T10:40:10.369Z,55
2016-11-04T10:41:10.425Z,55
2016-11-04T10:42:10.464Z,50
2016-11-04T10:43:10.505Z,50
2016-11-04T10:44:10.584Z,50
2016-11-04T10:45:10.669Z,45
2016-11-04T10:46:10.724Z,55
2016-11-04T10:47:10.755Z,50
2016-11-04T10:48:10.836Z,50
2016-11-04T10:49:10.941Z,50
2016-11-04T10:50:10.953Z,50
2016-11-04T10:51:10.985Z,50
2016-11-04T10:52:11.060Z,50
2016-11-04T10:53:11.083Z,50
2016-11-04T10:54:11.164Z,50
2016-11-04T10:55:11.238Z,50
2016-11-04T10:56:11.271Z,55
2016-11-04T10:57:11.343Z,55
2016-11-04T10:58:11.606Z,55
2016-11-04T10:59:11.436Z,55
2016-11-04T11:00:12.113Z,60
2016-11-04T11:01:11.567Z,60
2016-11-04T11:02:11.647Z,60
2016-11-04T11:03:11.676Z,60
2016-11-04T11:04:11.728Z,60
2016-11-04T11:05:11.799Z,60
2016-11-04T11:06:11.885Z,60
2016-11-04T11:07:11.891Z,55
2016-11-04T11:08:11.994Z,55
2016-11-04T11:09:12.024Z,50
2016-11-04T11:10:12.114Z,50
2016-11-04T11:11:12.135Z,50
2016-11-04T11:12:12.219Z,55
2016-11-04T11:13:12.272Z,55
2016-11-04T11:14:12.323Z,55
2016-11-04T11:15:12.366Z,55
2016-11-04T11:16:12.456Z,55
2016-11-04T11:17:12.511Z,50
2016-11-04T11:18:12.564Z,60
2016-11-04T11:19:12.610Z,60
2016-11-04T11:20:12.667Z,65
2016-11-04T11:21:12.738Z,60
2016-11-04T11:22:12.769Z,60
2016-11-04T11:23:12.815Z,55
2016-11-04T11:24:12.887Z,60
2016-11-04T11:25:12.992Z,55
2016-11-04T11:26:13.014Z,55
2016-11-04T11:27:13.052Z,55
2016-11-04T11:28:13.139Z,55
2016-11-04T11:29:13.196Z,45
2016-11-04T11:30:13.256Z,55
2016-11-04T11:31:13.356Z,55
2016-11-04T11:32:13.363Z,50
2016-11-04T11:33:13.421Z,45
2016-11-04T11:34:13.494Z,50
2016-11-04T11:35:13.540Z,55
2016-11-04T11:36:13.584Z,55
2016-11-04T11:37:13.653Z,55
2016-11-04T11:38:13.707Z,60
2016-11-04T11:39:13.778Z,55
2016-11-04T11:40:13.817Z,55
2016-11-04T11:41:13.858Z,45
2016-11-04T11:42:14.074Z,45
2016-11-04T11:43:14.006Z,45
2016-11-04T11:44:14.058Z,45
2016-11-04T11:45:14.116Z,50
2016-11-04T11:46:14.161Z,50
2016-11-04T11:47:14.412Z,50
2016-11-04T11:48:14.304Z,50
2016-11-04T11:49:14.374Z,50
2016-11-04T11:50:14.402Z,45
2016-11-04T11:51:14.445Z,45
2016-11-04T11:52:14.532Z,45
2016-11-04T11:53:14.602Z,45
2016-11-04T11:54:14.657Z,45
2016-11-04T11:55:14.700Z,45
2016-11-04T11:56:14.757Z,50
2016-11-04T11:57:15.206Z,50
2016-11-04T11:58:14.875Z,50
2016-11-04T11:59:14.919Z,50
2016-11-04T12:00:14.992Z,50
2016-11-04T12:01:15.035Z,50
2016-11-04T12:02:15.114Z,50
2016-11-04T12:03:15.276Z,50
2016-11-04T12:04:15.246Z,45
2016-11-04T12:05:15.295Z,45
2016-11-04T12:06:15.345Z,45
2016-11-04T12:07:15.399Z,45
2016-11-04T12:08:15.609Z,45
2016-11-04T12:09:15.508Z,45
2016-11-04T12:10:15.575Z,45
2016-11-04T12:11:15.623Z,45
2016-11-04T12:12:15.691Z,45
2016-11-04T12:13:15.843Z,45
2016-11-04T12:14:15.809Z,45
2016-11-04T12:15:15.848Z,45
2016-11-04T12:16:15.906Z,45
2016-11-04T12:17:15.988Z,45
2016-11-04T12:18:16.023Z,45
2016-11-04T12:19:16.151Z,45
2016-11-04T12:20:16.148Z,40
2016-11-04T12:21:16.218Z,45
2016-11-04T12:22:16.293Z,45
2016-11-04T12:23:16.435Z,40
2016-11-04T12:24:16.382Z,40
2016-11-04T12:25:16.472Z,40
2016-11-04T12:26:16.507Z,45
2016-11-04T12:27:16.556Z,40
2016-11-04T12:28:16.645Z,45
2016-11-04T12:29:16.666Z,45
2016-11-04T12:30:16.734Z,50
2016-11-04T12:31:16.812Z,50
2016-11-04T12:32:16.838Z,50
2016-11-04T12:33:16.929Z,35
2016-11-04T12:34:16.962Z,40
2016-11-04T12:35:17.337Z,35
2016-11-04T12:36:17.073Z,35
2016-11-04T12:37:17.141Z,35
2016-11-04T12:38:17.175Z,35
2016-11-04T12:39:17.271Z,30
2016-11-04T12:40:17.326Z,35
2016-11-04T12:41:17.370Z,25
2016-11-04T12:42:17.440Z,30
2016-11-04T12:43:17.495Z,25
2016-11-04T12:44:17.561Z,30
2016-11-04T12:45:17.630Z,30
2016-11-04T12:46:17.692Z,25
2016-11-04T12:47:18.389Z,25
2016-11-04T12:48:17.781Z,25
2016-11-04T12:49:17.856Z,25
2016-11-04T12:50:17.912Z,30
2016-11-04T12:51:17.959Z,30
2016-11-04T12:52:18.013Z,30
2016-11-04T12:53:18.070Z,25
2016-11-04T12:54:18.152Z,25
2016-11-04T12:55:18.393Z,25
2016-11-04T12:56:18.243Z,20
2016-11-04T12:57:18.310Z,20
2016-11-04T12:58:18.392Z,20
2016-11-04T12:59:18.436Z,15
2016-11-04T13:00:18.468Z,15
2016-11-04T13:01:18.536Z,15
2016-11-04T13:02:18.616Z,15
2016-11-04T13:03:18.652Z,20
2016-11-04T13:04:18.726Z,20
2016-11-04T13:05:18.765Z,20
2016-11-04T13:06:18.834Z,20
2016-11-04T13:07:18.890Z,25
2016-11-04T13:08:18.957Z,25
2016-11-04T13:09:18.996Z,30
2016-11-04T13:10:19.065Z,30
2016-11-04T13:11:19.120Z,40
2016-11-04T13:12:19.169Z,45
2016-11-04T13:13:19.241Z,40
2016-11-04T13:14:19.300Z,35
2016-11-04T13:15:19.669Z,40
2016-11-04T13:16:19.419Z,35
2016-11-04T13:17:19.493Z,35
2016-11-04T13:18:19.514Z,35
2016-11-04T13:19:19.606Z,35
2016-11-04T13:20:19.654Z,35
2016-11-04T13:21:19.715Z,30
2016-11-04T13:22:19.757Z,30
2016-11-04T13:23:19.814Z,30
2016-11-04T13:24:19.866Z,30
2016-11-04T13:25:19.928Z,25
2016-11-04T13:26:20.127Z,25
2016-11-04T13:27:20.067Z,25
2016-11-04T13:28:20.103Z,25
2016-11-04T13:29:20.156Z,25
2016-11-04T13:30:20.239Z,20
2016-11-04T13:31:20.290Z,20
2016-11-04T13:32:20.328Z,20
2016-11-04T13:33:20.391Z,20
2016-11-04T13:34:20.452Z,20
2016-11-04T13:35:20.554Z,20
2016-11-04T13:36:20.713Z,20
2016-11-04T13:37:20.632Z,20
2016-11-04T13:38:20.684Z,20
2016-11-04T13:39:20.754Z,20
2016-11-04T13:40:20.782Z,25
2016-11-04T13:41:20.861Z,20
2016-11-04T13:42:20.911Z,25
2016-11-04T13:43:20.981Z,25
2016-11-04T13:44:21.031Z,25
2016-11-04T13:45:21.094Z,25
2016-11-04T13:46:21.320Z,20
2016-11-04T13:47:21.222Z,20
2016-11-04T13:48:21.252Z,20
2016-11-04T13:49:21.366Z,20
2016-11-04T13:50:21.411Z,20
2016-11-04T13:51:21.465Z,15
2016-11-04T13:52:21.598Z,15
2016-11-04T13:53:21.556Z,15
2016-11-04T13:54:21.633Z,20
2016-11-04T13:55:21.696Z,20
2016-11-04T13:56:21.718Z,20
2016-11-04T13:57:21.799Z,20
2016-11-04T13:58:21.857Z,20
2016-11-04T13:59:21.926Z,20
2016-11-04T14:00:21.956Z,20
2016-11-04T14:01:22.028Z,15
2016-11-04T14:02:22.092Z,10
2016-11-04T14:03:22.146Z,15
2016-11-04T14:04:22.210Z,15
2016-11-04T14:05:22.267Z,20
2016-11-04T14:06:22.317Z,20
2016-11-04T14:07:22.395Z,20
2016-11-04T14:08:22.453Z,20
2016-11-04T14:09:22.488Z,20
2016-11-04T14:10:22.549Z,10
2016-11-04T14:11:22.616Z,15
2016-11-04T14:12:22.723Z,15
2016-11-04T14:13:22.711Z,15
2016-11-04T14:14:22.803Z,15
2016-11-04T14:15:22.914Z,15
2016-11-04T14:16:22.887Z,15
2016-11-04T14:17:22.930Z,10
2016-11-04T14:18:23.217Z,10
2016-11-04T14:19:23.078Z,15
2016-11-04T14:20:23.134Z,10
2016-11-04T14:21:23.193Z,5
2016-11-04T14:22:23.261Z,5
2016-11-04T14:23:23.309Z,5
2016-11-04T14:24:23.369Z,10
2016-11-04T14:25:23.423Z,10
2016-11-04T14:26:23.461Z,10
2016-11-04T14:27:23.526Z,10
2016-11-04T14:28:23.585Z,5
2016-11-04T14:29:23.633Z,10
2016-11-04T14:30:23.992Z,10
2016-11-04T14:31:23.739Z,10
2016-11-04T14:32:24.040Z,5
2016-11-04T14:33:23.921Z,5
2016-11-04T14:34:23.931Z,5
2016-11-04T14:35:23.988Z,5